Adam, Oman
Current Conditions -  °F | °C
As of 5:50 PM on Monday 24 Nov 2014 (Local Time) from OOMS Reporting Station
Clear Clear  
Wind Chill: 81°   Ceiling: Unl
Heat Index: 84°   Visibility: 6mi
Dew Point: 70°   Wind: 14mph
Humidity: 70%   Direction: 60°ENE
Pressure: 29.91"   Gusts: NA
Location:  22.38°N, 57.52°E
Report Text: OOMS 241350Z 06012KT CAVOK 27/21 Q1013 NOSIG
Loading
Personal Weather Stations






























Interactive Weather Map New forecast layout! Learn more

10-Day Weather Forecast

Advertisements
Track Severe Weather on mobile